Time;durP1;ratioP1;P1;durP2;ratioP2;P2;SDS_P1;SDS_P2;PMS_P1;PMS_P2;Temp;Humidity;BMP_temperature;BMP_pressure;BME280_temperature;BME280_humidity;BME280_pressure;Samples;Min_cycle;Max_cycle;Signal;HPM_P1;HPM_P2
2023/07/20 00:02:07;;;;;;;5.20;3.80;;;;;;;;;;5034528;28;20073;-75
2023/07/20 00:04:33;;;;;;;7.43;4.05;;;;;;;;;;5017719;28;20033;-75
2023/07/20 00:07:00;;;;;;;6.45;4.45;;;;;;;;;;5034081;28;20095;-76
2023/07/20 00:09:26;;;;;;;11.88;4.90;;;;;;;;;;5016637;28;20390;-75
2023/07/20 00:11:52;;;;;;;8.45;4.75;;;;;;;;;;5035114;28;20057;-76
2023/07/20 00:14:18;;;;;;;8.43;5.20;;;;;;;;;;5016266;28;20397;-76
2023/07/20 00:16:46;;;;;;;6.45;4.28;;;;;;;;;;5026800;28;20079;-78
2023/07/20 00:19:12;;;;;;;7.72;4.93;;;;;;;;;;5030851;28;20052;-77
2023/07/20 00:21:40;;;;;;;7.75;4.70;;;;;;;;;;5034067;28;20052;-76
2023/07/20 00:24:06;;;;;;;8.02;4.07;;;;;;;;;;5033853;28;20021;-76
2023/07/20 00:26:31;;;;;;;7.15;4.32;;;;;;;;;;5016340;28;20036;-76
2023/07/20 00:28:57;;;;;;;9.85;4.63;;;;;;;;;;5033249;28;20051;-76
2023/07/20 00:31:22;;;;;;;9.93;4.50;;;;;;;;;;5033743;28;20029;-75
2023/07/20 00:33:48;;;;;;;6.65;4.70;;;;;;;;;;5018704;28;20060;-75
2023/07/20 00:36:14;;;;;;;7.55;4.38;;;;;;;;;;5015829;28;20025;-76
2023/07/20 00:38:40;;;;;;;6.47;4.45;;;;;;;;;;5035120;28;20108;-77
2023/07/20 00:41:06;;;;;;;7.32;4.75;;;;;;;;;;5033507;28;20386;-75
2023/07/20 00:43:31;;;;;;;5.95;4.28;;;;;;;;;;5015724;28;20029;-75
2023/07/20 00:45:57;;;;;;;5.93;3.92;;;;;;;;;;5033260;28;20025;-75
2023/07/20 00:48:23;;;;;;;7.75;5.28;;;;;;;;;;5031683;28;20028;-75
2023/07/20 00:50:49;;;;;;;8.40;4.50;;;;;;;;;;5035484;28;20041;-77
2023/07/20 00:53:15;;;;;;;5.93;4.10;;;;;;;;;;4992680;28;20128;-76
2023/07/20 00:55:41;;;;;;;6.85;4.40;;;;;;;;;;5015470;28;20136;-75
2023/07/20 00:58:06;;;;;;;8.70;4.90;;;;;;;;;;5016498;28;20025;-77
2023/07/20 01:00:32;;;;;;;8.20;5.40;;;;;;;;;;5013577;28;20065;-76
2023/07/20 01:02:58;;;;;;;6.80;4.60;;;;;;;;;;5011594;28;20029;-76
2023/07/20 01:05:38;;;;;;;6.85;4.82;;;;;;;;;;5020709;28;20113;-75
2023/07/20 01:08:25;;;;;;;9.00;5.18;;;;;;;;;;5023685;28;20108;-75
2023/07/20 01:10:57;;;;;;;7.53;4.60;;;;;;;;;;5018230;28;20017;-76
2023/07/20 01:13:23;;;;;;;7.20;4.18;;;;;;;;;;5035190;28;20038;-75
2023/07/20 01:15:58;;;;;;;5.75;4.10;;;;;;;;;;5033104;28;20025;-77
2023/07/20 01:18:24;;;;;;;5.28;3.75;;;;;;;;;;5007881;28;20474;-76
2023/07/20 01:20:49;;;;;;;4.50;3.03;;;;;;;;;;5033969;28;20083;-76
2023/07/20 01:23:26;;;;;;;5.00;3.20;;;;;;;;;;5033831;28;20029;-75
2023/07/20 01:26:17;;;;;;;6.50;4.15;;;;;;;;;;5032705;28;20021;-77
2023/07/20 01:29:05;;;;;;;4.60;3.38;;;;;;;;;;5009190;28;20039;-76
2023/07/20 01:31:37;;;;;;;7.35;3.80;;;;;;;;;;5008882;28;20402;-76
2023/07/20 01:34:05;;;;;;;4.45;3.10;;;;;;;;;;5037766;28;20025;-75
2023/07/20 01:36:34;;;;;;;4.30;3.03;;;;;;;;;;4997881;28;20453;-76
2023/07/20 01:38:59;;;;;;;5.32;2.90;;;;;;;;;;5032531;28;20462;-76
2023/07/20 01:41:25;;;;;;;5.78;3.47;;;;;;;;;;5018010;28;20120;-76
2023/07/20 01:43:50;;;;;;;5.60;3.20;;;;;;;;;;5022321;28;20465;-76
2023/07/20 01:46:16;;;;;;;4.65;3.28;;;;;;;;;;5031060;28;20029;-75
2023/07/20 01:48:41;;;;;;;4.97;3.17;;;;;;;;;;5032497;28;20053;-75
2023/07/20 01:51:07;;;;;;;4.97;3.28;;;;;;;;;;5030683;28;20021;-75
2023/07/20 01:53:32;;;;;;;4.35;3.17;;;;;;;;;;5014508;28;20083;-76
2023/07/20 01:55:58;;;;;;;5.20;3.35;;;;;;;;;;5030161;28;20131;-76
2023/07/20 01:58:24;;;;;;;6.88;4.30;;;;;;;;;;5014484;28;20025;-75
2023/07/20 02:00:50;;;;;;;6.15;3.85;;;;;;;;;;5014708;28;20025;-76
2023/07/20 02:03:15;;;;;;;3.90;2.70;;;;;;;;;;5015979;28;20025;-77
2023/07/20 02:05:44;;;;;;;4.80;3.38;;;;;;;;;;5014534;28;20036;-76
2023/07/20 02:08:09;;;;;;;3.97;3.10;;;;;;;;;;5032281;28;20026;-76
2023/07/20 02:10:35;;;;;;;4.95;3.22;;;;;;;;;;5014106;28;20052;-75
2023/07/20 02:13:01;;;;;;;4.57;3.25;;;;;;;;;;5038910;28;20065;-76
2023/07/20 02:15:27;;;;;;;5.95;3.50;;;;;;;;;;5032053;28;20112;-76
2023/07/20 02:17:53;;;;;;;7.07;3.78;;;;;;;;;;5030307;28;20025;-76
2023/07/20 02:20:19;;;;;;;4.97;2.72;;;;;;;;;;5032004;28;20470;-76
2023/07/20 02:22:44;;;;;;;4.63;3.40;;;;;;;;;;5037241;28;20486;-76
2023/07/20 02:25:10;;;;;;;4.78;3.28;;;;;;;;;;5031877;28;20033;-76
2023/07/20 02:27:36;;;;;;;3.72;2.83;;;;;;;;;;5031863;28;20029;-76
2023/07/20 02:30:03;;;;;;;4.47;2.60;;;;;;;;;;5031809;28;20025;-76
2023/07/20 02:32:28;;;;;;;3.88;2.40;;;;;;;;;;5034209;28;20171;-76
2023/07/20 02:34:54;;;;;;;4.85;2.50;;;;;;;;;;5021859;28;20486;-78
2023/07/20 02:37:19;;;;;;;3.67;2.25;;;;;;;;;;5029875;28;20100;-76
2023/07/20 02:39:44;;;;;;;4.57;2.20;;;;;;;;;;5019938;28;20056;-76
2023/07/20 02:42:10;;;;;;;4.00;2.47;;;;;;;;;;5031972;28;20030;-76
2023/07/20 02:44:35;;;;;;;4.20;2.15;;;;;;;;;;5031758;28;20057;-76
2023/07/20 02:47:01;;;;;;;3.90;1.95;;;;;;;;;;5034594;28;20462;-75
2023/07/20 02:49:27;;;;;;;3.30;2.20;;;;;;;;;;5034140;28;20022;-76
2023/07/20 02:51:52;;;;;;;4.40;2.45;;;;;;;;;;5017721;28;20116;-76
2023/07/20 02:54:18;;;;;;;3.03;1.90;;;;;;;;;;5017604;28;20108;-76
2023/07/20 02:56:43;;;;;;;3.97;2.22;;;;;;;;;;5035956;28;20018;-76
2023/07/20 02:59:08;;;;;;;3.90;2.40;;;;;;;;;;5030702;28;20385;-76
2023/07/20 03:01:34;;;;;;;4.35;2.58;;;;;;;;;;5034177;28;20025;-76
2023/07/20 03:03:59;;;;;;;4.03;2.30;;;;;;;;;;5020346;28;20499;-75
2023/07/20 03:06:25;;;;;;;4.00;3.05;;;;;;;;;;5033676;28;20025;-76
2023/07/20 03:08:51;;;;;;;5.50;2.95;;;;;;;;;;5035327;28;20470;-76
2023/07/20 03:11:18;;;;;;;4.45;2.58;;;;;;;;;;5035212;28;20025;-75
2023/07/20 03:13:44;;;;;;;3.78;2.58;;;;;;;;;;5017351;28;20067;-76
2023/07/20 03:16:15;;;;;;;4.78;2.78;;;;;;;;;;5017281;28;20116;-75
2023/07/20 03:18:41;;;;;;;3.95;2.58;;;;;;;;;;5019769;28;20024;-77
2023/07/20 03:21:08;;;;;;;4.20;2.30;;;;;;;;;;5017154;28;20017;-76
2023/07/20 03:23:34;;;;;;;3.30;2.20;;;;;;;;;;5035052;28;20026;-76
2023/07/20 03:26:00;;;;;;;3.30;2.40;;;;;;;;;;5033782;28;20017;-75
2023/07/20 03:28:26;;;;;;;2.83;1.88;;;;;;;;;;5034777;28;20033;-75
2023/07/20 03:30:55;;;;;;;2.28;1.50;;;;;;;;;;5034897;28;20041;-75
2023/07/20 03:33:29;;;;;;;3.10;1.92;;;;;;;;;;5033523;28;20040;-76
2023/07/20 03:35:55;;;;;;;3.30;1.90;;;;;;;;;;5033841;28;20383;-75
2023/07/20 03:38:21;;;;;;;3.78;1.77;;;;;;;;;;5006726;28;20036;-76
2023/07/20 03:40:57;;;;;;;2.60;1.90;;;;;;;;;;5034647;28;20025;-76
2023/07/20 03:43:23;;;;;;;3.35;2.05;;;;;;;;;;5035319;28;20030;-76
2023/07/20 03:45:49;;;;;;;4.10;1.88;;;;;;;;;;5029973;28;20022;-76
2023/07/20 03:48:16;;;;;;;3.67;1.98;;;;;;;;;;5022382;28;20061;-77
2023/07/20 03:50:41;;;;;;;2.60;1.83;;;;;;;;;;5038832;28;20116;-76
2023/07/20 03:53:07;;;;;;;3.20;1.83;;;;;;;;;;5034507;28;20097;-76
2023/07/20 03:55:32;;;;;;;4.82;1.90;;;;;;;;;;5034371;28;20045;-77
2023/07/20 03:57:58;;;;;;;2.70;1.83;;;;;;;;;;5038515;28;20014;-77
2023/07/20 04:00:23;;;;;;;4.35;2.10;;;;;;;;;;5034060;28;20529;-75
2023/07/20 04:02:49;;;;;;;3.42;2.00;;;;;;;;;;5034372;28;20035;-76
2023/07/20 04:05:14;;;;;;;2.60;1.75;;;;;;;;;;5019784;28;20124;-75
2023/07/20 04:07:40;;;;;;;2.75;1.83;;;;;;;;;;5016364;28;20026;-76
2023/07/20 04:10:05;;;;;;;2.28;1.73;;;;;;;;;;5035784;28;20528;-76
2023/07/20 04:12:31;;;;;;;2.97;1.95;;;;;;;;;;5016098;28;20033;-76
2023/07/20 04:14:56;;;;;;;2.22;1.63;;;;;;;;;;5032816;28;20079;-76
2023/07/20 04:17:22;;;;;;;2.47;1.88;;;;;;;;;;5015773;28;20028;-76
2023/07/20 04:19:47;;;;;;;4.32;2.20;;;;;;;;;;5016128;28;20044;-76
2023/07/20 04:22:15;;;;;;;2.95;1.92;;;;;;;;;;5016278;28;20036;-76
2023/07/20 04:24:43;;;;;;;2.75;2.00;;;;;;;;;;5013130;28;20120;-76
2023/07/20 04:27:09;;;;;;;3.50;2.38;;;;;;;;;;5033759;28;20063;-77
2023/07/20 04:29:34;;;;;;;3.65;2.65;;;;;;;;;;5032503;28;20037;-75
2023/07/20 04:31:59;;;;;;;4.72;2.50;;;;;;;;;;5032766;28;20485;-75
2023/07/20 04:34:25;;;;;;;5.45;2.78;;;;;;;;;;5041860;28;20029;-76
2023/07/20 04:36:50;;;;;;;3.95;3.00;;;;;;;;;;5033513;28;20053;-75
2023/07/20 04:39:16;;;;;;;3.60;2.50;;;;;;;;;;5033033;28;20479;-75
2023/07/20 04:41:41;;;;;;;3.60;2.60;;;;;;;;;;5013790;28;20025;-76
2023/07/20 04:44:06;;;;;;;5.53;3.00;;;;;;;;;;5033459;28;20022;-75
2023/07/20 04:46:32;;;;;;;4.35;2.92;;;;;;;;;;5015552;28;20026;-76
2023/07/20 04:48:57;;;;;;;6.15;3.13;;;;;;;;;;5021271;28;20025;-76
2023/07/20 04:51:23;;;;;;;3.80;2.90;;;;;;;;;;5033301;28;20022;-76
2023/07/20 04:53:49;;;;;;;4.82;3.50;;;;;;;;;;5030401;28;20090;-76
2023/07/20 04:56:14;;;;;;;4.22;3.20;;;;;;;;;;5033359;28;20639;-76
2023/07/20 04:58:39;;;;;;;3.90;2.78;;;;;;;;;;5023204;28;20025;-76
2023/07/20 05:01:05;;;;;;;5.95;3.22;;;;;;;;;;5032961;28;20463;-75
2023/07/20 05:03:30;;;;;;;4.28;3.30;;;;;;;;;;5025180;28;20032;-75
2023/07/20 05:05:57;;;;;;;5.05;2.80;;;;;;;;;;5015192;28;20507;-75
2023/07/20 05:08:23;;;;;;;6.15;3.40;;;;;;;;;;5016453;28;20082;-76
2023/07/20 05:10:48;;;;;;;6.28;3.40;;;;;;;;;;5015492;28;20152;-79
2023/07/20 05:13:14;;;;;;;4.07;3.35;;;;;;;;;;5020268;28;20112;-76
2023/07/20 05:15:39;;;;;;;4.20;3.33;;;;;;;;;;5016917;28;20386;-76
2023/07/20 05:18:05;;;;;;;4.53;3.38;;;;;;;;;;5037597;28;20051;-76
2023/07/20 05:20:33;;;;;;;7.38;3.35;;;;;;;;;;5033137;28;20028;-76
2023/07/20 05:22:58;;;;;;;4.85;3.40;;;;;;;;;;5031884;28;20386;-76
2023/07/20 05:25:24;;;;;;;5.85;2.65;;;;;;;;;;5017410;28;20025;-77
2023/07/20 05:27:50;;;;;;;4.78;3.20;;;;;;;;;;5013726;28;20028;-76
2023/07/20 05:30:16;;;;;;;5.47;3.65;;;;;;;;;;5014837;28;20047;-75
2023/07/20 05:32:41;;;;;;;4.13;3.17;;;;;;;;;;5031266;28;20021;-76
2023/07/20 05:35:08;;;;;;;7.43;3.42;;;;;;;;;;5010936;28;20029;-76
2023/07/20 05:37:33;;;;;;;5.10;4.07;;;;;;;;;;5015564;28;20071;-76
2023/07/20 05:39:59;;;;;;;7.00;4.15;;;;;;;;;;5026662;28;20386;-75
2023/07/20 05:42:24;;;;;;;5.28;3.95;;;;;;;;;;5031295;28;20165;-76
2023/07/20 05:44:52;;;;;;;4.72;3.50;;;;;;;;;;5019892;28;20049;-76
2023/07/20 05:47:18;;;;;;;5.88;4.50;;;;;;;;;;5032214;28;20052;-77
2023/07/20 05:49:43;;;;;;;5.55;4.10;;;;;;;;;;5022646;28;20052;-76
2023/07/20 05:52:09;;;;;;;6.32;3.92;;;;;;;;;;5014610;28;20159;-75
2023/07/20 05:54:34;;;;;;;6.88;4.20;;;;;;;;;;5032153;28;20208;-75
2023/07/20 05:57:00;;;;;;;6.50;3.83;;;;;;;;;;5032469;28;20075;-75
2023/07/20 05:59:29;;;;;;;6.20;3.83;;;;;;;;;;5031133;28;20116;-76
2023/07/20 06:01:54;;;;;;;6.32;4.40;;;;;;;;;;5014590;28;20017;-75
2023/07/20 06:04:20;;;;;;;4.95;3.42;;;;;;;;;;5032130;28;20112;-76
2023/07/20 06:06:46;;;;;;;11.00;4.18;;;;;;;;;;5031777;28;20037;-75
2023/07/20 06:09:12;;;;;;;5.07;3.92;;;;;;;;;;5023134;28;20024;-76
2023/07/20 06:11:38;;;;;;;5.50;4.03;;;;;;;;;;5021149;28;20032;-76
2023/07/20 06:14:04;;;;;;;5.63;4.22;;;;;;;;;;5032245;28;20021;-75
2023/07/20 06:16:29;;;;;;;4.93;4.00;;;;;;;;;;5020226;28;20540;-75
2023/07/20 06:18:55;;;;;;;7.82;3.63;;;;;;;;;;5028362;28;20021;-76
2023/07/20 06:21:20;;;;;;;7.32;4.10;;;;;;;;;;5020674;28;20118;-75
2023/07/20 06:23:46;;;;;;;6.75;4.20;;;;;;;;;;5035229;28;20029;-76
2023/07/20 06:26:11;;;;;;;5.38;3.97;;;;;;;;;;5018197;28;20045;-75
2023/07/20 06:28:37;;;;;;;4.65;3.50;;;;;;;;;;5035858;28;20061;-76
2023/07/20 06:31:03;;;;;;;6.38;3.35;;;;;;;;;;5018224;28;20068;-75
2023/07/20 06:33:29;;;;;;;5.63;3.20;;;;;;;;;;5039331;28;20021;-76
2023/07/20 06:35:54;;;;;;;6.57;2.95;;;;;;;;;;5023988;28;20055;-76
2023/07/20 06:38:20;;;;;;;4.95;2.92;;;;;;;;;;5042492;28;20489;-77
2023/07/20 06:40:48;;;;;;;5.05;3.20;;;;;;;;;;5035799;28;20038;-76
2023/07/20 06:43:14;;;;;;;7.40;3.30;;;;;;;;;;5036158;28;20025;-76
2023/07/20 06:45:39;;;;;;;5.10;3.30;;;;;;;;;;5036271;28;20017;-76
2023/07/20 06:48:06;;;;;;;6.05;3.28;;;;;;;;;;5032615;28;20025;-76
2023/07/20 06:50:31;;;;;;;5.07;3.72;;;;;;;;;;5038185;28;20030;-75
2023/07/20 06:52:57;;;;;;;6.07;3.10;;;;;;;;;;5035565;28;20029;-77
2023/07/20 06:55:22;;;;;;;3.65;2.30;;;;;;;;;;5017560;28;20025;-76
2023/07/20 06:57:47;;;;;;;3.42;2.13;;;;;;;;;;5017063;28;20032;-76
2023/07/20 07:00:13;;;;;;;2.88;2.20;;;;;;;;;;5014756;28;20390;-76
2023/07/20 07:02:39;;;;;;;3.33;2.00;;;;;;;;;;5035128;28;20056;-75
2023/07/20 07:05:05;;;;;;;3.67;1.63;;;;;;;;;;5018607;28;20112;-76
2023/07/20 07:07:30;;;;;;;4.97;2.50;;;;;;;;;;5018371;28;20061;-75
2023/07/20 07:09:56;;;;;;;7.25;2.55;;;;;;;;;;5037613;28;20028;-76
2023/07/20 07:12:21;;;;;;;4.78;2.85;;;;;;;;;;5017193;28;20067;-76
2023/07/20 07:14:47;;;;;;;4.40;2.17;;;;;;;;;;5032294;28;20028;-76
2023/07/20 07:17:12;;;;;;;4.95;2.25;;;;;;;;;;5017304;28;20032;-76
2023/07/20 07:19:38;;;;;;;3.78;2.08;;;;;;;;;;5017176;28;20025;-77
2023/07/20 07:22:04;;;;;;;4.53;2.60;;;;;;;;;;5035208;28;20017;-75
2023/07/20 07:24:33;;;;;;;5.90;2.60;;;;;;;;;;5024284;28;20108;-76
2023/07/20 07:26:59;;;;;;;2.95;1.77;;;;;;;;;;5034834;28;20592;-76
2023/07/20 07:29:25;;;;;;;2.70;1.65;;;;;;;;;;5017176;28;20029;-76
2023/07/20 07:31:51;;;;;;;2.35;1.52;;;;;;;;;;5032627;28;20405;-77
2023/07/20 07:34:16;;;;;;;4.05;2.10;;;;;;;;;;5031739;28;20092;-76
2023/07/20 07:36:41;;;;;;;2.15;1.48;;;;;;;;;;5034613;28;20163;-76
2023/07/20 07:39:07;;;;;;;5.40;2.90;;;;;;;;;;5028061;28;20026;-76
2023/07/20 07:41:32;;;;;;;3.47;2.22;;;;;;;;;;5016997;28;20049;-76
2023/07/20 07:43:58;;;;;;;3.85;2.00;;;;;;;;;;5021303;28;20044;-76
2023/07/20 07:46:23;;;;;;;2.72;1.75;;;;;;;;;;5013473;28;20501;-76
2023/07/20 07:48:49;;;;;;;3.05;1.80;;;;;;;;;;5007592;28;20022;-78
2023/07/20 07:51:15;;;;;;;2.97;1.80;;;;;;;;;;5034335;28;20554;-76
2023/07/20 07:53:40;;;;;;;3.70;2.00;;;;;;;;;;5034596;28;20485;-76
2023/07/20 07:56:09;;;;;;;3.88;1.90;;;;;;;;;;5016304;28;20030;-76
2023/07/20 07:58:35;;;;;;;3.55;1.85;;;;;;;;;;5016288;28;20485;-77
2023/07/20 08:01:00;;;;;;;2.90;1.85;;;;;;;;;;5027271;28;20017;-75
2023/07/20 08:03:26;;;;;;;2.92;2.00;;;;;;;;;;5034114;28;20026;-75
2023/07/20 08:05:55;;;;;;;2.65;1.67;;;;;;;;;;5034062;28;20032;-76
2023/07/20 08:08:20;;;;;;;2.78;1.80;;;;;;;;;;5033928;28;20017;-76
2023/07/20 08:10:47;;;;;;;3.03;1.70;;;;;;;;;;5016314;28;20477;-76
2023/07/20 08:13:12;;;;;;;1.65;1.35;;;;;;;;;;5016137;28;20018;-77
2023/07/20 08:15:38;;;;;;;3.67;2.20;;;;;;;;;;5016160;28;20545;-75
2023/07/20 08:18:04;;;;;;;4.35;2.08;;;;;;;;;;5016317;28;20018;-76
2023/07/20 08:20:29;;;;;;;6.85;2.65;;;;;;;;;;5016161;28;20033;-76
2023/07/20 08:22:55;;;;;;;2.47;1.88;;;;;;;;;;5016154;28;20033;-77
2023/07/20 08:25:21;;;;;;;3.90;1.88;;;;;;;;;;5041492;28;20025;-76
2023/07/20 08:27:47;;;;;;;2.97;1.80;;;;;;;;;;5033538;28;20371;-76
2023/07/20 08:30:13;;;;;;;2.40;1.50;;;;;;;;;;5035859;28;20080;-76
2023/07/20 08:32:39;;;;;;;2.30;1.40;;;;;;;;;;5033932;28;20025;-76
2023/07/20 08:35:05;;;;;;;2.00;1.50;;;;;;;;;;5034108;28;20100;-76
2023/07/20 08:37:31;;;;;;;1.95;1.45;;;;;;;;;;5033584;28;20021;-77
2023/07/20 08:39:56;;;;;;;3.65;1.80;;;;;;;;;;5017306;28;20021;-76
2023/07/20 08:42:22;;;;;;;2.90;2.03;;;;;;;;;;5029277;28;20029;-77
2023/07/20 08:44:49;;;;;;;3.45;1.80;;;;;;;;;;5017896;28;20056;-76
2023/07/20 08:47:16;;;;;;;2.55;1.40;;;;;;;;;;5026160;28;20061;-77
2023/07/20 08:49:42;;;;;;;3.17;1.60;;;;;;;;;;5017480;28;20032;-76
2023/07/20 08:52:08;;;;;;;4.18;1.60;;;;;;;;;;5015621;28;20022;-76
2023/07/20 08:54:35;;;;;;;2.03;1.30;;;;;;;;;;5033248;28;20075;-79
2023/07/20 08:57:05;;;;;;;2.03;1.45;;;;;;;;;;5025776;28;20021;-77
2023/07/20 08:59:32;;;;;;;3.15;1.80;;;;;;;;;;5033008;28;20060;-76
2023/07/20 09:01:59;;;;;;;2.80;1.80;;;;;;;;;;5015229;28;20386;-76
2023/07/20 09:04:24;;;;;;;2.47;1.70;;;;;;;;;;5018879;28;20041;-76
2023/07/20 09:06:50;;;;;;;3.50;1.63;;;;;;;;;;5035775;28;20017;-77
2023/07/20 09:09:16;;;;;;;3.28;2.00;;;;;;;;;;5032752;28;20066;-76
2023/07/20 09:11:41;;;;;;;1.85;1.20;;;;;;;;;;5032989;28;20021;-76
2023/07/20 09:14:09;;;;;;;2.97;1.88;;;;;;;;;;5015095;28;20026;-77
2023/07/20 09:16:53;;;;;;;3.80;1.90;;;;;;;;;;5028019;28;20159;-76
2023/07/20 09:19:18;;;;;;;2.72;1.80;;;;;;;;;;5015488;28;20026;-76
2023/07/20 09:21:46;;;;;;;2.80;2.20;;;;;;;;;;5033386;28;20021;-77
2023/07/20 09:24:12;;;;;;;3.25;1.85;;;;;;;;;;5018138;28;20100;-76
2023/07/20 09:26:42;;;;;;;3.05;2.00;;;;;;;;;;5035389;28;20033;-76
2023/07/20 09:29:09;;;;;;;1.67;1.13;;;;;;;;;;5032493;28;20044;-77
2023/07/20 09:31:35;;;;;;;2.28;1.70;;;;;;;;;;5015073;28;20389;-76
2023/07/20 09:34:00;;;;;;;2.25;1.60;;;;;;;;;;5014690;28;20112;-77
2023/07/20 09:36:29;;;;;;;1.75;1.23;;;;;;;;;;5006398;28;20029;-76
2023/07/20 09:38:55;;;;;;;2.65;1.10;;;;;;;;;;5016761;28;20052;-76
2023/07/20 09:41:21;;;;;;;4.47;1.40;;;;;;;;;;5000753;28;20073;-76
2023/07/20 09:43:46;;;;;;;1.88;1.20;;;;;;;;;;5029916;28;20041;-76
2023/07/20 09:46:13;;;;;;;2.08;1.50;;;;;;;;;;5022515;28;20537;-76
2023/07/20 09:48:38;;;;;;;2.92;1.80;;;;;;;;;;5032781;28;20501;-77
2023/07/20 09:51:06;;;;;;;3.42;2.00;;;;;;;;;;5014396;28;20029;-77
2023/07/20 09:53:33;;;;;;;2.58;1.90;;;;;;;;;;5032306;28;20079;-77
2023/07/20 09:55:58;;;;;;;2.13;1.30;;;;;;;;;;5032486;28;20036;-76
2023/07/20 09:58:25;;;;;;;2.17;1.02;;;;;;;;;;5014327;28;20030;-76
2023/07/20 10:00:54;;;;;;;2.50;1.48;;;;;;;;;;5031042;28;20086;-77
2023/07/20 10:03:21;;;;;;;1.70;1.20;;;;;;;;;;5039009;28;20493;-77
2023/07/20 10:06:12;;;;;;;1.83;1.30;;;;;;;;;;5014800;28;20029;-77
2023/07/20 10:08:42;;;;;;;3.25;1.23;;;;;;;;;;5023110;28;20034;-79
2023/07/20 10:11:08;;;;;;;2.83;1.42;;;;;;;;;;5036574;28;20029;-77
2023/07/20 10:13:39;;;;;;;1.52;1.10;;;;;;;;;;5032265;28;20024;-77
2023/07/20 10:16:10;;;;;;;3.22;1.70;;;;;;;;;;5030326;28;20021;-76
2023/07/20 10:18:55;;;;;;;3.50;1.42;;;;;;;;;;5029673;28;20118;-77
2023/07/20 10:21:22;;;;;;;2.53;1.45;;;;;;;;;;5014384;28;20029;-77
2023/07/20 10:23:48;;;;;;;2.92;1.70;;;;;;;;;;5032175;28;20473;-77
2023/07/20 10:26:14;;;;;;;2.33;1.63;;;;;;;;;;5014461;28;20112;-77
2023/07/20 10:28:40;;;;;;;2.63;1.40;;;;;;;;;;5024521;28;20541;-76
2023/07/20 10:31:09;;;;;;;2.03;1.23;;;;;;;;;;5014113;28;20013;-76
2023/07/20 10:33:36;;;;;;;1.77;1.17;;;;;;;;;;5034255;28;20021;-76
2023/07/20 10:36:05;;;;;;;2.22;1.38;;;;;;;;;;5032852;28;20075;-77
2023/07/20 10:38:45;;;;;;;1.33;1.05;;;;;;;;;;5039272;28;20017;-76
2023/07/20 10:41:33;;;;;;;2.15;1.23;;;;;;;;;;5014630;28;20117;-76
2023/07/20 10:44:04;;;;;;;1.92;1.15;;;;;;;;;;5009585;28;20026;-77
2023/07/20 10:46:38;;;;;;;3.35;1.50;;;;;;;;;;5022481;28;20108;-77
2023/07/20 10:49:05;;;;;;;5.22;1.95;;;;;;;;;;5014048;28;20478;-76
2023/07/20 10:51:40;;;;;;;2.72;1.33;;;;;;;;;;5014236;28;20024;-77
2023/07/20 10:54:16;;;;;;;2.58;1.60;;;;;;;;;;5032063;28;20389;-78
2023/07/20 10:56:43;;;;;;;2.22;1.83;;;;;;;;;;5016313;28;20028;-77
2023/07/20 10:59:37;;;;;;;1.45;1.15;;;;;;;;;;5030685;28;20116;-77
2023/07/20 11:02:07;;;;;;;3.05;2.10;;;;;;;;;;5009396;28;20022;-77
2023/07/20 11:04:43;;;;;;;3.15;1.40;;;;;;;;;;5031963;28;20060;-78
2023/07/20 11:07:08;;;;;;;3.08;1.90;;;;;;;;;;5031739;28;20466;-77
2023/07/20 11:09:35;;;;;;;1.98;1.30;;;;;;;;;;5014874;28;20029;-76
2023/07/20 11:12:15;;;;;;;2.25;1.40;;;;;;;;;;5018282;28;20024;-77
2023/07/20 11:14:53;;;;;;;3.22;1.92;;;;;;;;;;5014260;28;20396;-77
2023/07/20 11:17:22;;;;;;;3.83;2.10;;;;;;;;;;5010703;28;20025;-77
2023/07/20 11:19:48;;;;;;;2.83;2.17;;;;;;;;;;5019790;28;20163;-77
2023/07/20 11:22:17;;;;;;;3.92;2.30;;;;;;;;;;5027247;28;20026;-76
2023/07/20 11:24:42;;;;;;;2.63;1.80;;;;;;;;;;5034878;28;20041;-77
2023/07/20 11:27:08;;;;;;;4.50;2.42;;;;;;;;;;5034985;28;20029;-76
2023/07/20 11:29:35;;;;;;;3.28;2.50;;;;;;;;;;5033640;28;20084;-77
2023/07/20 11:32:02;;;;;;;3.75;2.35;;;;;;;;;;5023217;28;20032;-78
2023/07/20 11:34:30;;;;;;;3.08;2.10;;;;;;;;;;5038504;28;20021;-77
2023/07/20 11:36:56;;;;;;;4.57;3.15;;;;;;;;;;5019900;28;20057;-77
2023/07/20 11:39:22;;;;;;;3.70;2.58;;;;;;;;;;5019329;28;20065;-77
2023/07/20 11:41:58;;;;;;;4.72;2.72;;;;;;;;;;5032129;28;20405;-76
2023/07/20 11:44:27;;;;;;;3.97;2.05;;;;;;;;;;5036167;28;20021;-76
2023/07/20 11:47:08;;;;;;;2.78;1.73;;;;;;;;;;5028323;28;20100;-76
2023/07/20 11:49:38;;;;;;;2.92;2.00;;;;;;;;;;5019778;28;20504;-77
2023/07/20 11:52:08;;;;;;;2.70;1.92;;;;;;;;;;5034551;28;20108;-78
2023/07/20 11:54:38;;;;;;;2.80;1.95;;;;;;;;;;5014873;28;20024;-76
2023/07/20 11:57:07;;;;;;;3.28;2.63;;;;;;;;;;5015117;28;20367;-76
2023/07/20 11:59:33;;;;;;;3.22;2.60;;;;;;;;;;4998337;28;20112;-76
2023/07/20 12:02:02;;;;;;;3.03;2.08;;;;;;;;;;4999843;28;20566;-76
2023/07/20 12:04:27;;;;;;;3.17;1.73;;;;;;;;;;5017789;28;20021;-76
2023/07/20 12:06:54;;;;;;;3.63;2.38;;;;;;;;;;5033853;28;20079;-76
2023/07/20 12:09:20;;;;;;;3.33;2.50;;;;;;;;;;5034166;28;20021;-76
2023/07/20 12:11:49;;;;;;;3.90;2.70;;;;;;;;;;5039982;28;20040;-77
2023/07/20 12:14:14;;;;;;;2.65;2.05;;;;;;;;;;5016546;28;20056;-76
2023/07/20 12:16:39;;;;;;;3.60;2.40;;;;;;;;;;4999973;28;20410;-76
2023/07/20 12:19:10;;;;;;;3.10;2.30;;;;;;;;;;5016394;28;20017;-77
2023/07/20 12:21:37;;;;;;;3.75;2.53;;;;;;;;;;5033849;28;20164;-76
2023/07/20 12:24:04;;;;;;;5.20;2.30;;;;;;;;;;5026000;28;20021;-76
2023/07/20 12:26:30;;;;;;;3.38;2.10;;;;;;;;;;5028841;28;20469;-76
2023/07/20 12:28:56;;;;;;;3.30;2.45;;;;;;;;;;5033957;28;20025;-76
2023/07/20 12:31:23;;;;;;;4.88;3.15;;;;;;;;;;5032667;28;20041;-76
2023/07/20 12:33:49;;;;;;;5.80;3.35;;;;;;;;;;5016154;28;20035;-75
2023/07/20 12:36:14;;;;;;;4.40;2.80;;;;;;;;;;5015749;28;20025;-76
2023/07/20 12:38:41;;;;;;;4.03;2.50;;;;;;;;;;5020016;28;20021;-76
2023/07/20 12:41:07;;;;;;;3.78;2.70;;;;;;;;;;5036203;28;20036;-77
2023/07/20 12:43:33;;;;;;;3.40;2.70;;;;;;;;;;5018793;28;20036;-76
2023/07/20 12:45:59;;;;;;;3.72;2.80;;;;;;;;;;5013138;28;20033;-77
2023/07/20 12:48:24;;;;;;;4.22;2.70;;;;;;;;;;5033475;28;20462;-77
2023/07/20 12:50:50;;;;;;;3.30;2.55;;;;;;;;;;5015843;28;20075;-76
2023/07/20 12:53:16;;;;;;;3.63;2.40;;;;;;;;;;5033483;28;20064;-76
2023/07/20 12:55:42;;;;;;;3.38;2.58;;;;;;;;;;5020847;28;20363;-76
2023/07/20 12:58:07;;;;;;;4.07;2.60;;;;;;;;;;5033302;28;20032;-76
2023/07/20 13:00:33;;;;;;;3.38;2.13;;;;;;;;;;5016159;28;20066;-76
2023/07/20 13:02:59;;;;;;;3.47;2.50;;;;;;;;;;5033342;28;20558;-76
2023/07/20 13:05:24;;;;;;;3.40;2.50;;;;;;;;;;5032740;28;20041;-76
2023/07/20 13:07:50;;;;;;;3.70;2.78;;;;;;;;;;5032208;28;20032;-75
2023/07/20 13:10:15;;;;;;;3.47;2.20;;;;;;;;;;5032941;28;20079;-76
2023/07/20 13:12:41;;;;;;;3.40;2.30;;;;;;;;;;5015441;28;20056;-76
2023/07/20 13:15:08;;;;;;;2.85;2.20;;;;;;;;;;5015648;28;20032;-76
2023/07/20 13:17:35;;;;;;;3.90;2.33;;;;;;;;;;5032953;28;20489;-76
2023/07/20 13:20:00;;;;;;;3.53;2.40;;;;;;;;;;5012443;28;20041;-75
2023/07/20 13:22:26;;;;;;;3.80;2.50;;;;;;;;;;5018627;28;20025;-75
2023/07/20 13:24:53;;;;;;;3.83;2.90;;;;;;;;;;5015579;28;20191;-76
2023/07/20 13:27:18;;;;;;;3.95;2.75;;;;;;;;;;5013843;28;20404;-76
2023/07/20 13:29:45;;;;;;;3.72;2.70;;;;;;;;;;5011346;28;20121;-75
2023/07/20 13:32:14;;;;;;;4.05;2.90;;;;;;;;;;5014122;28;20029;-75
2023/07/20 13:34:39;;;;;;;3.25;2.40;;;;;;;;;;5032995;28;20032;-76
2023/07/20 13:37:05;;;;;;;2.40;1.90;;;;;;;;;;5029821;28;20104;-75
2023/07/20 13:39:31;;;;;;;4.25;3.10;;;;;;;;;;5008719;28;20037;-76
2023/07/20 13:41:56;;;;;;;7.10;3.55;;;;;;;;;;5032486;28;20166;-76
2023/07/20 13:44:22;;;;;;;4.05;2.90;;;;;;;;;;5027569;28;20117;-76
2023/07/20 13:46:48;;;;;;;4.43;3.83;;;;;;;;;;5024018;28;20108;-75
2023/07/20 13:49:13;;;;;;;3.20;2.20;;;;;;;;;;5029885;28;20397;-75
2023/07/20 13:51:40;;;;;;;3.03;2.00;;;;;;;;;;4989557;28;20116;-76
2023/07/20 13:54:06;;;;;;;2.92;1.90;;;;;;;;;;5012523;28;20116;-75
2023/07/20 13:56:31;;;;;;;3.40;2.08;;;;;;;;;;5031141;28;20104;-75
2023/07/20 13:58:56;;;;;;;4.63;2.25;;;;;;;;;;5013008;28;20022;-76
2023/07/20 14:01:24;;;;;;;3.40;1.80;;;;;;;;;;5032528;28;20055;-77
2023/07/20 14:03:50;;;;;;;5.15;1.90;;;;;;;;;;5022215;28;20040;-76
2023/07/20 14:06:16;;;;;;;3.33;2.28;;;;;;;;;;5011265;28;20155;-75
2023/07/20 14:08:41;;;;;;;3.60;2.83;;;;;;;;;;5032222;28;20124;-75
2023/07/20 14:11:07;;;;;;;4.63;2.70;;;;;;;;;;5033118;28;20032;-75
2023/07/20 14:13:32;;;;;;;2.80;2.20;;;;;;;;;;5032123;28;20038;-76
2023/07/20 14:15:58;;;;;;;3.05;1.90;;;;;;;;;;5032274;28;20026;-75
2023/07/20 14:18:23;;;;;;;4.47;2.83;;;;;;;;;;5032213;28;20474;-75
2023/07/20 14:20:49;;;;;;;4.88;2.80;;;;;;;;;;5032416;28;20028;-76
2023/07/20 14:23:14;;;;;;;2.85;2.17;;;;;;;;;;5031963;28;20117;-76
2023/07/20 14:25:40;;;;;;;4.97;2.25;;;;;;;;;;5033540;28;20083;-76
2023/07/20 14:28:06;;;;;;;2.40;1.90;;;;;;;;;;5024198;28;20037;-75
2023/07/20 14:30:31;;;;;;;2.95;1.70;;;;;;;;;;5031979;28;20116;-76
2023/07/20 14:32:56;;;;;;;3.90;2.50;;;;;;;;;;5014645;28;20799;-75
2023/07/20 14:35:22;;;;;;;3.83;2.92;;;;;;;;;;5031955;28;20046;-76
2023/07/20 14:37:47;;;;;;;4.10;2.60;;;;;;;;;;5031869;28;20533;-76
2023/07/20 14:40:13;;;;;;;2.90;2.50;;;;;;;;;;5034839;28;20473;-75
2023/07/20 14:42:39;;;;;;;3.70;2.60;;;;;;;;;;5031871;28;20017;-75